Data for 03/25/2007

Time Sea-Level Adjusted Pressure Absolute Pressure Temperature Relative Humidity Dew Point   
(mb) (inHg) (mb) (inHg) (C) (F) (%) (C) (F)
00:05 1013 29.91 842 24.86 10.6 51.1 28 -6.9 19.6
00:10 1013 29.91 842 24.86 10.7 51.3 28 -7 19.5
00:15 1013 29.91 842 24.86 10.9 51.6 28 -6.7 19.9
00:20 1013 29.91 842 24.86 11 51.9 27 -7.1 19.3
00:25 1013 29.91 842 24.86 11.1 52 28 -6.8 19.8
00:30 1013 29.91 842 24.86 10.9 51.6 28 -7 19.3
00:35 1013 29.91 842 24.86 10.8 51.4 28 -6.8 19.7
00:40 1013 29.91 842 24.86 10.8 51.4 28 -7 19.3
00:45 1013 29.91 843 24.89 10.7 51.3 28 -6.9 19.5
00:50 1013 29.91 843 24.89 10.6 51.1 30 -6.2 20.8
00:55 1014 29.94 843 24.89 10.5 50.9 30 -6.3 20.7
01:00 1014 29.94 843 24.89 10.3 50.5 32 -5.9 21.4
01:05 1014 29.94 843 24.89 9.9 49.9 32 -6 21.2
01:10 1014 29.94 843 24.89 9.6 49.4 32 -6.1 21.1
01:15 1014 29.94 843 24.89 9.8 49.6 31 -6.4 20.5
01:20 1014 29.94 843 24.89 10 50 31 -6.3 20.7
01:25 1014 29.94 843 24.89 10 49.9 32 -6.1 21
01:30 1014 29.94 843 24.89 9.7 49.5 33 -5.6 22
01:35 1014 29.94 843 24.89 9 48.2 34 -6 21.2
01:40 1013 29.91 843 24.89 9 48.2 35 -5.7 21.8
01:45 1013 29.91 843 24.89 8.2 46.7 38 -5.2 22.6
01:50 1013 29.91 843 24.89 7.9 46.3 37 -5.9 21.5
01:55 1013 29.91 842 24.86 7.8 46 37 -5.9 21.3
02:00 1013 29.91 842 24.86 8.6 47.5 33 -6.7 19.9
02:05 1013 29.91 842 24.86 9 48.2 33 -6.3 20.6
02:10 1013 29.91 842 24.86 8.8 47.9 33 -6.4 20.5
02:15 1013 29.91 842 24.86 8.8 47.8 33 -6.5 20.3
02:20 1013 29.91 842 24.86 9 48.2 32 -6.6 20.1
02:25 1013 29.91 842 24.86 8.7 47.7 34 -6.4 20.4
02:30 1013 29.91 842 24.86 8.8 47.9 32 -6.9 19.6
02:35 1013 29.91 842 24.86 9.5 49.1 30 -7.1 19.3
02:40 1013 29.91 842 24.86 9.8 49.6 31 -6.7 19.9
02:45 1013 29.91 842 24.86 9.8 49.6 31 -6.5 20.3
02:50 1013 29.91 842 24.86 9.7 49.5 32 -6.1 21
02:55 1013 29.91 842 24.86 9.5 49 34 -5.6 22
03:00 1013 29.91 842 24.86 8.6 47.5 35 -5.9 21.3
03:05 1013 29.91 842 24.86 8.7 47.6 36 -5.6 21.9
03:10 1013 29.91 842 24.86 8.3 46.9 38 -5.2 22.6
03:15 1013 29.91 842 24.86 7.7 45.8 40 -5.1 22.8
03:20 1013 29.91 842 24.86 7.4 45.2 40 -5.3 22.4
03:25 1013 29.91 842 24.86 7.2 45 40 -5.4 22.3
03:30 1013 29.91 842 24.86 7.1 44.7 43 -4.6 23.6
03:35 1013 29.91 842 24.86 6.9 44.4 42 -5 23
03:40 1013 29.91 842 24.86 6.8 44.3 42 -5.2 22.7
03:45 1013 29.91 842 24.86 7 44.6 40 -5.7 21.8
03:50 1013 29.91 842 24.86 7.1 44.7 41 -5.3 22.4
03:55 1012 29.88 842 24.86 7 44.5 40 -5.8 21.6
04:00 1012 29.88 842 24.86 7.4 45.2 38 -6.1 21.1
04:05 1012 29.88 842 24.86 7.5 45.4 38 -5.8 21.5
04:10 1012 29.88 842 24.86 7.6 45.7 37 -6.3 20.7
04:15 1012 29.88 842 24.86 7.7 45.9 37 -6.1 21.1
04:20 1012 29.88 842 24.86 7.8 46 36 -6.3 20.7
04:25 1012 29.88 842 24.86 8 46.4 36 -6.3 20.7
04:30 1012 29.88 841 24.83 8 46.4 36 -6.1 21.1
04:35 1012 29.88 841 24.83 7.9 46.2 39 -5.4 22.4
04:40 1012 29.88 841 24.83 7.5 45.5 38 -5.8 21.5
04:45 1012 29.88 841 24.83 7.9 46.2 36 -6.4 20.4
04:50 1012 29.88 842 24.86 8 46.4 37 -5.7 21.8
04:55 1012 29.88 842 24.86 8 46.5 36 -6.2 20.9
05:00 1012 29.88 842 24.86 8.4 47 37 -5.6 22
05:05 1012 29.88 842 24.86 8.3 47 36 -6 21.2
05:10 1012 29.88 842 24.86 8.4 47.2 35 -6.2 20.9
05:15 1012 29.88 842 24.86 8.5 47.3 35 -6.1 21.1
05:20 1012 29.88 842 24.86 8.5 47.2 35 -6.1 21.1
05:25 1012 29.88 842 24.86 8.4 47.1 38 -5 23
05:30 1012 29.88 842 24.86 7.9 46.1 39 -5.2 22.6
05:35 1012 29.88 842 24.86 7.7 45.9 41 -4.8 23.4
05:40 1012 29.88 842 24.86 7.2 45 42 -4.9 23.1
05:45 1012 29.88 842 24.86 7.1 44.8 44 -4.4 24
05:50 1012 29.88 842 24.86 6.7 44 45 -4.6 23.8
05:55 1012 29.88 841 24.83 6.7 44.1 44 -4.7 23.6
06:00 1012 29.88 841 24.83 7.6 45.6 42 -4.5 23.9
06:05 1012 29.88 841 24.83 7.6 45.8 42 -4.6 23.7
06:10 1012 29.88 841 24.83 6.9 44.4 47 -3.7 25.3
06:15 1012 29.88 841 24.83 6.5 43.6 47 -4.1 24.6
06:20 1012 29.88 841 24.83 6.4 43.5 47 -4.1 24.6
06:25 1012 29.88 841 24.83 6.9 44.4 43 -4.8 23.4
06:30 1012 29.88 841 24.83 7.7 45.9 41 -4.7 23.5
06:35 1012 29.88 841 24.83 8 46.3 42 -4 24.8
06:40 1012 29.88 841 24.83 9 48.2 37 -5 22.9
06:45 1012 29.88 841 24.83 9.9 49.7 40 -3.1 26.4
06:50 1012 29.88 841 24.83 10.2 50.3 34 -4.8 23.4
06:55 1012 29.88 841 24.83 10.6 51 35 -4.3 24.2
07:00 1012 29.88 841 24.83 10.8 51.5 33 -4.7 23.5
07:05 1012 29.88 841 24.83 11.4 52.5 32 -4.6 23.7
07:10 1012 29.88 841 24.83 11.7 53.1 32 -4.3 24.2
07:15 1012 29.88 841 24.83 11.6 52.8 34 -3.8 25.1
07:20 1012 29.88 841 24.83 11.2 52.2 34 -4.2 24.5
07:25 1012 29.88 841 24.83 10.9 51.7 34 -4.2 24.4
07:30 1012 29.88 841 24.83 11.2 52.2 33 -4.6 23.7
07:35 1012 29.88 841 24.83 11.6 52.8 32 -4.7 23.5
07:40 1012 29.88 841 24.83 11.6 52.9 32 -4.6 23.8
07:45 1012 29.88 841 24.83 11.6 52.9 32 -4.6 23.8
07:50 1012 29.88 841 24.83 11.5 52.7 32 -4.5 23.9
07:55 1012 29.88 841 24.83 11.3 52.3 33 -4.5 23.8
08:00 1012 29.88 841 24.83 11.3 52.4 32 -4.6 23.7
08:05 1012 29.88 841 24.83 11.8 53.2 31 -4.6 23.6
08:10 1012 29.88 841 24.83 12.3 54.2 30 -4.6 23.8
08:15 1012 29.88 841 24.83 12.7 54.9 30 -4.3 24.3
08:20 1012 29.88 841 24.83 13 55.3 30 -4.3 24.3
08:25 1011 29.85 841 24.83 13.3 55.9 30 -4 24.9
08:30 1011 29.85 841 24.83 13.3 56 30 -3.6 25.5
08:35 1011 29.85 841 24.83 13.4 56 29 -4.1 24.6
08:40 1011 29.85 840 24.81 13.6 56.5 30 -3.8 25.2
08:45 1011 29.85 840 24.81 13.9 57 28 -4 24.7
08:50 1011 29.85 840 24.81 14.1 57.3 29 -3.4 25.8
08:55 1011 29.85 840 24.81 14.3 57.7 28 -3.9 25
09:00 1011 29.85 840 24.81 14.5 58.2 28 -3.7 25.4
09:05 1011 29.85 840 24.81 14.3 57.7 28 -3.9 25
09:10 1011 29.85 840 24.81 13.9 57.1 29 -3.6 25.5
09:15 1011 29.85 840 24.81 14 57.2 27 -4.6 23.7
09:20 1011 29.85 840 24.81 14.6 58.2 28 -3.7 25.3
09:25 1011 29.85 840 24.81 14.8 58.6 26 -4.3 24.2
09:30 1011 29.85 840 24.81 15.1 59.1 27 -3.5 25.6
09:35 1011 29.85 840 24.81 15.3 59.6 25 -4.3 24.2
09:40 1011 29.85 840 24.81 15.4 59.7 25 -4.2 24.4
09:45 1011 29.85 840 24.81 15.5 60 25 -4.1 24.5
09:50 1011 29.85 840 24.81 15.8 60.4 26 -3.5 25.6
09:55 1011 29.85 840 24.81 16 60.7 25 -4.1 24.6
10:00 1011 29.85 840 24.81 15.8 60.4 25 -4.4 24.2
10:05 1011 29.85 840 24.81 16 60.8 24 -4.2 24.4
10:10 1011 29.85 840 24.81 15.7 60.2 26 -3.8 25.1
10:15 1011 29.85 840 24.81 15.8 60.4 25 -4.1 24.6
10:20 1011 29.85 840 24.81 16 60.8 25 -4.2 24.5
10:25 1011 29.85 840 24.81 16.4 61.5 24 -4.1 24.7
10:30 1011 29.85 840 24.81 16.7 62.1 24 -3.9 25
10:35 1011 29.85 840 24.81 16.6 61.8 23 -4.3 24.3
10:40 1011 29.85 840 24.81 16.6 61.9 23 -4.4 24.1
10:45 1011 29.85 840 24.81 16.7 62 23 -4.4 24.1
10:50 1011 29.85 840 24.81 16.8 62.2 23 -4.2 24.5
10:55 1011 29.85 840 24.81 16.9 62.5 24 -3.8 25.1
11:00 1011 29.85 840 24.81 17.1 62.8 23 -3.9 25
11:05 1010 29.83 840 24.81 17 62.7 23 -4.2 24.5
11:10 1010 29.83 840 24.81 17 62.7 24 -3.7 25.3
11:15 1010 29.83 839 24.78 17.3 63.1 23 -3.8 25.2
11:20 1010 29.83 839 24.78 17.3 63.1 23 -4.2 24.4
11:25 1010 29.83 839 24.78 17.1 62.8 24 -3.7 25.4
11:30 1010 29.83 839 24.78 17.5 63.4 23 -3.9 25
11:35 1010 29.83 839 24.78 17.5 63.5 22 -4.3 24.2
11:40 1010 29.83 839 24.78 17.4 63.3 22 -4.3 24.2
11:45 1010 29.83 839 24.78 17.4 63.4 22 -4.1 24.5
11:50 1010 29.83 839 24.78 17.4 63.2 22 -4.2 24.4
11:55 1010 29.83 839 24.78 17.5 63.6 22 -4.1 24.5
12:00 1010 29.83 839 24.78 17.8 64 22 -4.3 24.2
12:05 1010 29.83 839 24.78 18.1 64.5 21 -4.2 24.4
12:10 1010 29.83 839 24.78 18.1 64.6 21 -4.2 24.4
12:15 1010 29.83 839 24.78 18.1 64.6 21 -4.2 24.4
12:20 1010 29.83 839 24.78 18.3 64.9 21 -4 24.7
12:25 1010 29.83 839 24.78 18.6 65.5 21 -4.2 24.4
12:30 1010 29.83 839 24.78 18.9 66 20 -4.1 24.6
12:35 1010 29.83 839 24.78 18.6 65.5 21 -4.1 24.6
12:40 1010 29.83 839 24.78 18.2 64.8 21 -4.4 24.1
12:45 1010 29.83 839 24.78 18.2 64.7 21 -4.6 23.7
12:50 1010 29.83 839 24.78 18.5 65.4 20 -4.4 24
12:55 1010 29.83 839 24.78 18.5 65.2 21 -4 24.8
13:00 1010 29.83 839 24.78 18.5 65.3 22 -3.7 25.4
13:05 1010 29.83 839 24.78 18.7 65.7 21 -3.8 25.2
13:10 1010 29.83 839 24.78 18.5 65.2 22 -3.6 25.6
13:15 1010 29.83 839 24.78 18.3 65 21 -4.2 24.4
13:20 1009 29.8 839 24.78 18.5 65.2 21 -4.2 24.5
13:25 1009 29.8 839 24.78 18.5 65.3 21 -4.4 24.2
13:30 1009 29.8 839 24.78 18.2 64.7 21 -4.1 24.5
13:35 1009 29.8 838 24.75 17.9 64.3 22 -4 24.7
13:40 1009 29.8 838 24.75 18.1 64.5 22 -4.1 24.6
13:45 1009 29.8 838 24.75 17.9 64.2 22 -3.9 25
13:50 1009 29.8 838 24.75 18.1 64.6 22 -3.8 25.2
13:55 1009 29.8 838 24.75 18.2 64.7 22 -3.9 25.1
14:00 1009 29.8 838 24.75 18.1 64.5 22 -3.6 25.5
14:05 1009 29.8 838 24.75 18.4 65.1 22 -3.9 25
14:10 1009 29.8 838 24.75 18.2 64.8 22 -3.6 25.5
14:15 1009 29.8 838 24.75 18.2 64.8 22 -4 24.9
14:20 1009 29.8 838 24.75 18.5 65.3 22 -3.5 25.7
14:25 1009 29.8 838 24.75 18.3 64.9 23 -3.2 26.3
14:30 1009 29.8 838 24.75 19 66.3 22 -3.3 26.1
14:35 1009 29.8 838 24.75 19.1 66.4 23 -2.6 27.3
14:40 1009 29.8 838 24.75 19 66.1 22 -3.2 26.3
14:45 1009 29.8 838 24.75 18.8 65.9 22 -3.2 26.2
14:50 1009 29.8 838 24.75 18.4 65.2 23 -3.1 26.4
14:55 1009 29.8 838 24.75 18.4 65.1 23 -2.7 27.1
15:00 1009 29.8 838 24.75 18.4 65.2 23 -2.9 26.8
15:05 1009 29.8 838 24.75 18.4 65 24 -2.5 27.5
15:10 1009 29.8 838 24.75 18.3 64.9 23 -3.3 26.1
15:15 1009 29.8 838 24.75 18.1 64.6 23 -3.3 26
15:20 1009 29.8 838 24.75 17.9 64.2 24 -2.9 26.7
15:25 1009 29.8 838 24.75 17.6 63.7 24 -3.2 26.2
15:30 1009 29.8 838 24.75 17.4 63.2 24 -3.3 26.1
15:35 1009 29.8 839 24.78 17.2 62.9 24 -3.3 26.1
15:40 1009 29.8 839 24.78 17.1 62.8 25 -3.2 26.2
15:45 1009 29.8 839 24.78 17.1 62.7 25 -2.9 26.7
15:50 1009 29.8 839 24.78 17 62.7 25 -2.9 26.8
15:55 1009 29.8 839 24.78 17 62.7 26 -2.4 27.7
16:00 1009 29.8 838 24.75 17 62.5 26 -2.6 27.3
16:05 1009 29.8 839 24.78 16.9 62.5 27 -2.2 28.1
16:10 1009 29.8 839 24.78 17 62.5 26 -2.6 27.3
16:15 1009 29.8 839 24.78 17.5 63.5 25 -2.4 27.6
16:20 1010 29.83 839 24.78 17.2 63 26 -2.2 28
16:25 1009 29.8 839 24.78 17.2 62.9 25 -2.6 27.3
16:30 1009 29.8 839 24.78 17.2 63 25 -2.7 27.1
16:35 1009 29.8 839 24.78 17 62.6 26 -2.8 27
16:40 1010 29.83 839 24.78 16.8 62.3 26 -2.6 27.4
16:45 1010 29.83 839 24.78 16.7 62.1 26 -2.9 26.8
16:50 1010 29.83 839 24.78 16.6 61.9 26 -2.8 26.9
16:55 1010 29.83 839 24.78 16.6 61.9 26 -2.8 26.9
17:00 1010 29.83 839 24.78 16.6 61.8 27 -2.3 27.8
17:05 1010 29.83 839 24.78 16.2 61.1 31 -1 30.1
17:10 1010 29.83 839 24.78 15.3 59.6 33 -0.9 30.4
17:15 1010 29.83 839 24.78 14.9 58.8 35 -0.5 31.1
17:20 1010 29.83 839 24.78 14.6 58.3 37 0.2 32.4
17:25 1010 29.83 839 24.78 14 57.2 40 0.8 33.4
17:30 1010 29.83 839 24.78 13.5 56.2 43 1.2 34.1
17:35 1010 29.83 839 24.78 13.3 55.9 41 0.3 32.5
17:40 1010 29.83 840 24.81 13.3 55.9 42 0.7 33.2
17:45 1010 29.83 840 24.81 13.3 55.9 43 0.9 33.7
17:50 1011 29.85 840 24.81 12.7 54.9 48 1.9 35.5
17:55 1011 29.85 840 24.81 12.3 54.1 50 2.1 35.8
18:00 1011 29.85 840 24.81 12.2 54 49 2 35.6
18:05 1011 29.85 840 24.81 12.1 53.7 52 2.5 36.5
18:10 1011 29.85 840 24.81 11.8 53.2 54 2.7 36.9
18:15 1011 29.85 840 24.81 11.7 53.1 56 3.2 37.8
18:20 1011 29.85 840 24.81 11.7 53 56 3.1 37.7
18:25 1011 29.85 840 24.81 11.3 52.4 57 3.2 37.8
18:30 1011 29.85 840 24.81 11.2 52.1 58 3.4 38
18:35 1011 29.85 840 24.81 11.1 52 57 3 37.4
18:40 1011 29.85 840 24.81 11.3 52.4 56 2.9 37.3
18:45 1011 29.85 840 24.81 11.6 52.9 53 2.5 36.5
18:50 1011 29.85 840 24.81 12 53.7 50 2 35.6
18:55 1011 29.85 840 24.81 12.3 54.1 49 2 35.6
19:00 1011 29.85 840 24.81 12.3 54.2 49 1.9 35.4
19:05 1011 29.85 840 24.81 12.2 54 49 2 35.6
19:10 1011 29.85 840 24.81 12.1 53.7 50 2 35.5
19:15 1011 29.85 840 24.81 11.9 53.5 51 2.1 35.8
19:20 1011 29.85 841 24.83 11.8 53.3 50 1.9 35.5
19:25 1012 29.88 841 24.83 11.8 53.2 51 1.9 35.5
19:30 1012 29.88 841 24.83 11.8 53.2 51 2.1 35.9
19:35 1012 29.88 841 24.83 11.4 52.6 53 2.3 36.2
19:40 1012 29.88 841 24.83 11 51.9 55 2.5 36.4
19:45 1012 29.88 841 24.83 11 51.7 56 2.5 36.5
19:50 1012 29.88 841 24.83 10.9 51.6 57 2.8 37.1
19:55 1012 29.88 841 24.83 10.8 51.5 57 2.8 37
20:00 1012 29.88 841 24.83 10.8 51.5 58 2.8 37.1
20:05 1012 29.88 841 24.83 10.8 51.4 58 3 37.4
20:10 1012 29.88 841 24.83 10.5 51 58 2.6 36.6
20:15 1012 29.88 842 24.86 10.5 50.8 60 3.1 37.6
20:20 1012 29.88 842 24.86 10.1 50.1 61 3 37.5
20:25 1013 29.91 842 24.86 9.9 49.8 67 4.1 39.3
20:30 1013 29.91 842 24.86 9.7 49.4 71 4.8 40.6
20:35 1013 29.91 842 24.86 9.3 48.7 73 4.6 40.3
20:40 1013 29.91 843 24.89 9 48.1 74 4.6 40.2
20:45 1014 29.94 843 24.89 8 46.5 73 3.5 38.4
20:50 1014 29.94 843 24.89 7.2 44.9 77 3.5 38.3
20:55 1015 29.97 844 24.92 6.7 44 80 3.4 38.1
21:00 1015 29.97 844 24.92 6.2 43.1 83 3.5 38.2
21:05 1015 29.97 844 24.92 5.7 42.3 84 3.2 37.7
21:10 1015 29.97 845 24.95 5.5 41.8 82 2.6 36.6
21:15 1016 30 845 24.95 5.5 41.8 82 2.6 36.6
21:20 1016 30 845 24.95 5.5 41.9 83 2.9 37.3
21:25 1016 30 845 24.95 5.6 42.1 82 2.8 37.1
21:30 1016 30 845 24.95 5.6 42.1 82 2.7 36.9
21:35 1016 30 846 24.98 5.7 42.2 82 2.8 37.1
21:40 1017 30.03 846 24.98 5.8 42.4 80 2.6 36.6
21:45 1016 30 846 24.98 5.7 42.3 82 2.9 37.1
21:50 1017 30.03 846 24.98 5.7 42.3 81 2.8 37
21:55 1017 30.03 846 24.98 5.7 42.2 81 2.7 36.9
22:00 1017 30.03 846 24.98 5.5 42 82 2.7 36.8
22:05 1017 30.03 846 24.98 5.5 41.9 83 2.8 37.1
22:10 1017 30.03 846 24.98 5.4 41.7 83 2.7 36.8
22:15 1017 30.03 846 24.98 5.4 41.8 81 2.5 36.4
22:20 1017 30.03 846 24.98 5.1 41.2 82 2.3 36.2
22:25 1017 30.03 846 24.98 5.1 41.1 81 2.1 35.7
22:30 1017 30.03 846 24.98 5.1 41.2 79 1.8 35.2
22:35 1017 30.03 846 24.98 5.1 41.2 79 1.9 35.3
22:40 1017 30.03 846 24.98 5.3 41.5 78 1.8 35.2
22:45 1017 30.03 846 24.98 5.3 41.5 78 1.7 35.1
22:50 1017 30.03 846 24.98 5.1 41.2 80 1.9 35.5
22:55 1017 30.03 846 24.98 4.8 40.7 81 1.8 35.2
23:00 1017 30.03 846 24.98 4.6 40.3 82 1.8 35.3
23:05 1017 30.03 846 24.98 4.3 39.7 84 1.9 35.3
23:10 1017 30.03 846 24.98 4.1 39.4 83 1.5 34.7
23:15 1017 30.03 846 24.98 4.3 39.8 81 1.4 34.5
23:20 1017 30.03 846 24.98 4.5 40 82 1.7 35.1
23:25 1017 30.03 846 24.98 4.1 39.4 87 2.1 35.8
23:30 1017 30.03 846 24.98 4.1 39.4 87 2.2 35.9
23:35 1017 30.03 846 24.98 4.3 39.7 84 1.9 35.4
23:40 1017 30.03 846 24.98 4.3 39.7 84 1.8 35.3
23:45 1017 30.03 846 24.98 4 39.3 86 1.9 35.5
23:50 1017 30.03 846 24.98 4 39.2 84 1.6 34.8
23:55 1017 30.03 846 24.98 4.2 39.5 84 1.7 35.1
24:00 1017 30.03 846 24.98 4.1 39.5 85 1.8 35.3